sensor_id;sensor_type;location;lat;lon;timestamp;pressure;altitude;pressure_sealevel;temperature;humidity
22283;BME280;11310;51.528;21.204;2023-08-31T00:00:02;99065.78;;;17.40;100.00
22283;BME280;11310;51.528;21.204;2023-08-31T00:02:32;99071.09;;;17.40;100.00
22283;BME280;11310;51.528;21.204;2023-08-31T00:05:02;99068.81;;;17.36;100.00
22283;BME280;11310;51.528;21.204;2023-08-31T00:07:32;99062.66;;;17.35;100.00
22283;BME280;11310;51.528;21.204;2023-08-31T00:10:07;99074.53;;;17.31;100.00
22283;BME280;11310;51.528;21.204;2023-08-31T00:12:45;99068.63;;;17.28;100.00
22283;BME280;11310;51.528;21.204;2023-08-31T00:15:18;99067.69;;;17.29;100.00
22283;BME280;11310;51.528;21.204;2023-08-31T00:17:51;99070.47;;;17.27;100.00
22283;BME280;11310;51.528;21.204;2023-08-31T00:20:21;99065.16;;;17.27;100.00
22283;BME280;11310;51.528;21.204;2023-08-31T00:22:50;99068.38;;;17.31;100.00
22283;BME280;11310;51.528;21.204;2023-08-31T00:25:25;99059.56;;;17.30;100.00
22283;BME280;11310;51.528;21.204;2023-08-31T00:27:54;99055.97;;;17.31;100.00
22283;BME280;11310;51.528;21.204;2023-08-31T00:30:24;99056.34;;;17.27;100.00
22283;BME280;11310;51.528;21.204;2023-08-31T00:32:57;99056.34;;;17.27;100.00
22283;BME280;11310;51.528;21.204;2023-08-31T00:35:35;99055.66;;;17.25;100.00
22283;BME280;11310;51.528;21.204;2023-08-31T00:38:04;99054.13;;;17.22;100.00
22283;BME280;11310;51.528;21.204;2023-08-31T00:40:38;99064.00;;;17.20;100.00
22283;BME280;11310;51.528;21.204;2023-08-31T00:43:13;99059.69;;;17.19;100.00
22283;BME280;11310;51.528;21.204;2023-08-31T00:45:51;99065.97;;;17.18;100.00
22283;BME280;11310;51.528;21.204;2023-08-31T00:48:21;99071.53;;;17.15;100.00
22283;BME280;11310;51.528;21.204;2023-08-31T00:50:59;99063.84;;;17.12;100.00
22283;BME280;11310;51.528;21.204;2023-08-31T00:53:34;99065.66;;;17.12;100.00
22283;BME280;11310;51.528;21.204;2023-08-31T00:56:05;99068.19;;;17.13;100.00
22283;BME280;11310;51.528;21.204;2023-08-31T00:58:35;99056.19;;;17.09;100.00
22283;BME280;11310;51.528;21.204;2023-08-31T01:01:11;99068.31;;;17.12;100.00
22283;BME280;11310;51.528;21.204;2023-08-31T01:03:50;99066.78;;;17.09;100.00
22283;BME280;11310;51.528;21.204;2023-08-31T01:06:36;99063.28;;;17.09;100.00
22283;BME280;11310;51.528;21.204;2023-08-31T01:09:20;99068.44;;;17.10;100.00
22283;BME280;11310;51.528;21.204;2023-08-31T01:12:00;99069.69;;;17.06;100.00
22283;BME280;11310;51.528;21.204;2023-08-31T01:14:34;99077.63;;;17.06;100.00
22283;BME280;11310;51.528;21.204;2023-08-31T01:17:08;99077.63;;;17.06;100.00
22283;BME280;11310;51.528;21.204;2023-08-31T01:19:44;99084.09;;;17.13;100.00
22283;BME280;11310;51.528;21.204;2023-08-31T01:22:18;99075.97;;;17.05;100.00
22283;BME280;11310;51.528;21.204;2023-08-31T01:24:56;99081.28;;;17.05;100.00
22283;BME280;11310;51.528;21.204;2023-08-31T01:27:28;99084.75;;;17.06;100.00
22283;BME280;11310;51.528;21.204;2023-08-31T01:30:06;99081.53;;;17.02;100.00
22283;BME280;11310;51.528;21.204;2023-08-31T01:32:36;99076.22;;;17.02;100.00
22283;BME280;11310;51.528;21.204;2023-08-31T01:35:06;99085.84;;;17.03;100.00
22283;BME280;11310;51.528;21.204;2023-08-31T01:37:42;99084.31;;;17.01;100.00
22283;BME280;11310;51.528;21.204;2023-08-31T01:40:18;99085.84;;;17.03;100.00
22283;BME280;11310;51.528;21.204;2023-08-31T01:42:52;99086.00;;;17.02;100.00
22283;BME280;11310;51.528;21.204;2023-08-31T01:45:24;99099.38;;;17.00;100.00
22283;BME280;11310;51.528;21.204;2023-08-31T01:47:55;99088.06;;;16.98;100.00
22283;BME280;11310;51.528;21.204;2023-08-31T01:50:25;99092.41;;;16.99;100.00
22283;BME280;11310;51.528;21.204;2023-08-31T01:52:59;99095.88;;;17.00;100.00
22283;BME280;11310;51.528;21.204;2023-08-31T01:55:29;99089.28;;;16.94;100.00
22283;BME280;11310;51.528;21.204;2023-08-31T01:57:59;99094.59;;;16.94;100.00
22283;BME280;11310;51.528;21.204;2023-08-31T02:00:29;99085.25;;;16.90;100.00
22283;BME280;11310;51.528;21.204;2023-08-31T02:03:03;99091.38;;;16.91;100.00
22283;BME280;11310;51.528;21.204;2023-08-31T02:05:32;99084.78;;;16.85;100.00
22283;BME280;11310;51.528;21.204;2023-08-31T02:08:01;99083.41;;;16.81;100.00
22283;BME280;11310;51.528;21.204;2023-08-31T02:10:31;99085.06;;;16.82;100.00
22283;BME280;11310;51.528;21.204;2023-08-31T02:13:00;99079.06;;;16.80;100.00
22283;BME280;11310;51.528;21.204;2023-08-31T02:15:29;99081.00;;;16.78;100.00
22283;BME280;11310;51.528;21.204;2023-08-31T02:18:00;99088.25;;;16.76;100.00
22283;BME280;11310;51.528;21.204;2023-08-31T02:20:30;99085.63;;;16.76;100.00
22283;BME280;11310;51.528;21.204;2023-08-31T02:22:59;99090.91;;;16.76;100.00
22283;BME280;11310;51.528;21.204;2023-08-31T02:25:28;99091.47;;;16.80;100.00
22283;BME280;11310;51.528;21.204;2023-08-31T02:27:58;99095.34;;;16.76;100.00
22283;BME280;11310;51.528;21.204;2023-08-31T02:30:27;99103.19;;;16.77;100.00
22283;BME280;11310;51.528;21.204;2023-08-31T02:32:57;99107.38;;;16.80;100.00
22283;BME280;11310;51.528;21.204;2023-08-31T02:35:26;99106.41;;;16.81;100.00
22283;BME280;11310;51.528;21.204;2023-08-31T02:37:55;99106.28;;;16.82;100.00
22283;BME280;11310;51.528;21.204;2023-08-31T02:40:24;99107.38;;;16.80;100.00
22283;BME280;11310;51.528;21.204;2023-08-31T02:42:58;99107.50;;;16.78;100.00
22283;BME280;11310;51.528;21.204;2023-08-31T02:45:31;99108.47;;;16.77;100.00
22283;BME280;11310;51.528;21.204;2023-08-31T02:48:00;99100.41;;;16.79;100.00
22283;BME280;11310;51.528;21.204;2023-08-31T02:50:31;99105.81;;;16.77;100.00
22283;BME280;11310;51.528;21.204;2023-08-31T02:53:00;99116.56;;;16.76;100.00
22283;BME280;11310;51.528;21.204;2023-08-31T02:55:29;99117.13;;;16.79;100.00
22283;BME280;11310;51.528;21.204;2023-08-31T02:58:02;99117.41;;;16.76;100.00
22283;BME280;11310;51.528;21.204;2023-08-31T03:00:32;99120.75;;;16.78;100.00
22283;BME280;11310;51.528;21.204;2023-08-31T03:03:31;99122.69;;;16.76;100.00
22283;BME280;11310;51.528;21.204;2023-08-31T03:06:13;99123.66;;;16.75;100.00
22283;BME280;11310;51.528;21.204;2023-08-31T03:08:42;99121.00;;;16.75;100.00
22283;BME280;11310;51.528;21.204;2023-08-31T03:11:13;99125.34;;;16.76;100.00
22283;BME280;11310;51.528;21.204;2023-08-31T03:13:44;99117.41;;;16.76;100.00
22283;BME280;11310;51.528;21.204;2023-08-31T03:16:14;99119.31;;;16.74;100.00
22283;BME280;11310;51.528;21.204;2023-08-31T03:18:42;99121.00;;;16.75;100.00
22283;BME280;11310;51.528;21.204;2023-08-31T03:21:12;99119.56;;;16.71;100.00
22283;BME280;11310;51.528;21.204;2023-08-31T03:23:41;99105.06;;;16.66;100.00
22283;BME280;11310;51.528;21.204;2023-08-31T03:26:10;99118.19;;;16.67;100.00
22283;BME280;11310;51.528;21.204;2023-08-31T03:28:46;99125.41;;;16.65;100.00
22283;BME280;11310;51.528;21.204;2023-08-31T03:31:20;99137.66;;;16.66;100.00
22283;BME280;11310;51.528;21.204;2023-08-31T03:33:52;99134.31;;;16.64;100.00
22283;BME280;11310;51.528;21.204;2023-08-31T03:36:22;99134.44;;;16.63;100.00
22283;BME280;11310;51.528;21.204;2023-08-31T03:38:51;99135.44;;;16.62;100.00
22283;BME280;11310;51.528;21.204;2023-08-31T03:41:20;99132.66;;;16.63;100.00
22283;BME280;11310;51.528;21.204;2023-08-31T03:43:50;99136.53;;;16.59;100.00
22283;BME280;11310;51.528;21.204;2023-08-31T03:46:22;99139.88;;;16.61;100.00
22283;BME280;11310;51.528;21.204;2023-08-31T03:48:52;99141.81;;;16.59;100.00
22283;BME280;11310;51.528;21.204;2023-08-31T03:51:21;99135.69;;;16.59;100.00
22283;BME280;11310;51.528;21.204;2023-08-31T03:53:50;99138.31;;;16.59;100.00
22283;BME280;11310;51.528;21.204;2023-08-31T03:56:19;99138.44;;;16.57;100.00
22283;BME280;11310;51.528;21.204;2023-08-31T03:58:50;99141.38;;;16.54;100.00
22283;BME280;11310;51.528;21.204;2023-08-31T04:01:19;99137.03;;;16.53;100.00
22283;BME280;11310;51.528;21.204;2023-08-31T04:03:50;99144.28;;;16.51;100.00
22283;BME280;11310;51.528;21.204;2023-08-31T04:06:20;99145.94;;;16.52;100.00
22283;BME280;11310;51.528;21.204;2023-08-31T04:08:52;99146.66;;;16.54;100.00
22283;BME280;11310;51.528;21.204;2023-08-31T04:11:21;99147.38;;;16.56;100.00
22283;BME280;11310;51.528;21.204;2023-08-31T04:13:51;99143.03;;;16.55;100.00
22283;BME280;11310;51.528;21.204;2023-08-31T04:16:21;99138.72;;;16.54;100.00
22283;BME280;11310;51.528;21.204;2023-08-31T04:18:50;99138.44;;;16.57;100.00
22283;BME280;11310;51.528;21.204;2023-08-31T04:21:19;99153.50;;;16.57;100.00
22283;BME280;11310;51.528;21.204;2023-08-31T04:23:49;99152.41;;;16.59;100.00
22283;BME280;11310;51.528;21.204;2023-08-31T04:26:19;99145.28;;;16.60;100.00
22283;BME280;11310;51.528;21.204;2023-08-31T04:28:50;99151.06;;;16.65;100.00
22283;BME280;11310;51.528;21.204;2023-08-31T04:31:20;99153.56;;;16.66;100.00
22283;BME280;11310;51.528;21.204;2023-08-31T04:33:50;99159.06;;;16.74;100.00
22283;BME280;11310;51.528;21.204;2023-08-31T04:36:21;99161.69;;;16.74;100.00
22283;BME280;11310;51.528;21.204;2023-08-31T04:38:51;99163.38;;;16.75;100.00
22283;BME280;11310;51.528;21.204;2023-08-31T04:41:21;99169.44;;;16.87;100.00
22283;BME280;11310;51.528;21.204;2023-08-31T04:43:52;99169.97;;;16.81;100.00
22283;BME280;11310;51.528;21.204;2023-08-31T04:46:21;99176.94;;;16.82;100.00
22283;BME280;11310;51.528;21.204;2023-08-31T04:48:51;99176.81;;;16.83;100.00
22283;BME280;11310;51.528;21.204;2023-08-31T04:51:29;99184.75;;;16.83;100.00
22283;BME280;11310;51.528;21.204;2023-08-31T04:53:59;99192.72;;;16.83;100.00
22283;BME280;11310;51.528;21.204;2023-08-31T04:56:30;99188.50;;;16.81;100.00
22283;BME280;11310;51.528;21.204;2023-08-31T04:59:01;99196.34;;;16.82;100.00
22283;BME280;11310;51.528;21.204;2023-08-31T05:01:33;99195.38;;;16.83;100.00
22283;BME280;11310;51.528;21.204;2023-08-31T05:04:03;99193.56;;;16.84;100.00
22283;BME280;11310;51.528;21.204;2023-08-31T05:06:33;99197.03;;;16.84;100.00
22283;BME280;11310;51.528;21.204;2023-08-31T05:09:03;99196.66;;;16.89;100.00
22283;BME280;11310;51.528;21.204;2023-08-31T05:11:35;99200.84;;;16.91;100.00
22283;BME280;11310;51.528;21.204;2023-08-31T05:14:05;99198.22;;;16.91;100.00
22283;BME280;11310;51.528;21.204;2023-08-31T05:16:34;99206.72;;;16.95;100.00
22283;BME280;11310;51.528;21.204;2023-08-31T05:19:04;99207.59;;;16.95;100.00
22283;BME280;11310;51.528;21.204;2023-08-31T05:21:33;99208.16;;;16.99;100.00
22283;BME280;11310;51.528;21.204;2023-08-31T05:24:03;99210.69;;;17.00;100.00
22283;BME280;11310;51.528;21.204;2023-08-31T05:26:32;99210.41;;;17.03;100.00
22283;BME280;11310;51.528;21.204;2023-08-31T05:29:00;99209.84;;;17.00;100.00
22283;BME280;11310;51.528;21.204;2023-08-31T05:31:33;99208.72;;;17.02;100.00
22283;BME280;11310;51.528;21.204;2023-08-31T05:34:02;99215.69;;;17.03;100.00
22283;BME280;11310;51.528;21.204;2023-08-31T05:36:33;99226.28;;;17.03;100.00
22283;BME280;11310;51.528;21.204;2023-08-31T05:39:02;99212.09;;;17.04;100.00
22283;BME280;11310;51.528;21.204;2023-08-31T05:41:31;99222.69;;;17.04;100.00
22283;BME280;11310;51.528;21.204;2023-08-31T05:44:01;99223.28;;;17.08;100.00
22283;BME280;11310;51.528;21.204;2023-08-31T05:46:30;99215.69;;;17.03;100.00
22283;BME280;11310;51.528;21.204;2023-08-31T05:49:01;99220.56;;;16.98;100.00
22283;BME280;11310;51.528;21.204;2023-08-31T05:51:31;99227.06;;;16.94;100.00
22283;BME280;11310;51.528;21.204;2023-08-31T05:54:00;99233.09;;;16.96;100.00
22283;BME280;11310;51.528;21.204;2023-08-31T05:56:31;99237.44;;;16.97;100.00
22283;BME280;11310;51.528;21.204;2023-08-31T05:59:00;99240.19;;;16.96;100.00
22283;BME280;11310;51.528;21.204;2023-08-31T06:01:29;99241.06;;;16.96;100.00
22283;BME280;11310;51.528;21.204;2023-08-31T06:03:58;99247.06;;;16.98;100.00
22283;BME280;11310;51.528;21.204;2023-08-31T06:06:29;99251.25;;;17.01;100.00
22283;BME280;11310;51.528;21.204;2023-08-31T06:09:36;99255.59;;;17.02;100.00
22283;BME280;11310;51.528;21.204;2023-08-31T06:12:31;99261.22;;;17.08;100.00
22283;BME280;11310;51.528;21.204;2023-08-31T06:15:00;99255.00;;;16.98;100.00
22283;BME280;11310;51.528;21.204;2023-08-31T06:17:30;99258.63;;;16.97;100.00
22283;BME280;11310;51.528;21.204;2023-08-31T06:19:59;99260.31;;;16.98;100.00
22283;BME280;11310;51.528;21.204;2023-08-31T06:22:30;99271.34;;;17.03;100.00
22283;BME280;11310;51.528;21.204;2023-08-31T06:24:59;99265.09;;;17.04;100.00
22283;BME280;11310;51.528;21.204;2023-08-31T06:27:33;99267.59;;;17.06;100.00
22283;BME280;11310;51.528;21.204;2023-08-31T06:30:04;99276.84;;;17.11;100.00
22283;BME280;11310;51.528;21.204;2023-08-31T06:32:35;99280.94;;;17.15;100.00
22283;BME280;11310;51.528;21.204;2023-08-31T06:35:05;99276.31;;;17.17;100.00
22283;BME280;11310;51.528;21.204;2023-08-31T06:37:36;99281.50;;;17.19;100.00
22283;BME280;11310;51.528;21.204;2023-08-31T06:40:06;99283.66;;;17.25;100.00
22283;BME280;11310;51.528;21.204;2023-08-31T06:42:37;99280.47;;;17.31;100.00
22283;BME280;11310;51.528;21.204;2023-08-31T06:45:08;99252.78;;;17.24;100.00
22283;BME280;11310;51.528;21.204;2023-08-31T06:47:37;99278.75;;;17.41;100.00
22283;BME280;11310;51.528;21.204;2023-08-31T06:50:06;99271.66;;;17.51;100.00
22283;BME280;11310;51.528;21.204;2023-08-31T06:52:37;99269.25;;;17.68;100.00
22283;BME280;11310;51.528;21.204;2023-08-31T06:55:09;99261.81;;;17.62;100.00
22283;BME280;11310;51.528;21.204;2023-08-31T06:57:38;99267.84;;;17.64;100.00
22283;BME280;11310;51.528;21.204;2023-08-31T07:00:08;99266.88;;;17.65;100.00
22283;BME280;11310;51.528;21.204;2023-08-31T07:02:41;99282.53;;;17.68;100.00
22283;BME280;11310;51.528;21.204;2023-08-31T07:05:11;99283.34;;;17.69;100.00
22283;BME280;11310;51.528;21.204;2023-08-31T07:07:42;99280.31;;;17.73;100.00
22283;BME280;11310;51.528;21.204;2023-08-31T07:10:10;99285.25;;;17.87;100.00
22283;BME280;11310;51.528;21.204;2023-08-31T07:12:39;99296.31;;;18.02;100.00
22283;BME280;11310;51.528;21.204;2023-08-31T07:15:09;99293.56;;;18.13;100.00
22283;BME280;11310;51.528;21.204;2023-08-31T07:17:38;99289.41;;;18.29;100.00
22283;BME280;11310;51.528;21.204;2023-08-31T07:20:08;99299.13;;;18.40;100.00
22283;BME280;11310;51.528;21.204;2023-08-31T07:22:45;99305.16;;;18.61;100.00
22283;BME280;11310;51.528;21.204;2023-08-31T07:25:15;99305.03;;;18.81;100.00
22283;BME280;11310;51.528;21.204;2023-08-31T07:27:45;99301.69;;;19.08;100.00
22283;BME280;11310;51.528;21.204;2023-08-31T07:30:14;99308.94;;;19.44;100.00
22283;BME280;11310;51.528;21.204;2023-08-31T07:32:44;99312.81;;;19.59;100.00
22283;BME280;11310;51.528;21.204;2023-08-31T07:35:13;99309.31;;;19.58;100.00
22283;BME280;11310;51.528;21.204;2023-08-31T07:37:45;99319.28;;;19.47;100.00
22283;BME280;11310;51.528;21.204;2023-08-31T07:40:14;99316.38;;;19.31;100.00
22283;BME280;11310;51.528;21.204;2023-08-31T07:42:43;99311.03;;;19.21;100.00
22283;BME280;11310;51.528;21.204;2023-08-31T07:45:12;99310.22;;;19.21;100.00
22283;BME280;11310;51.528;21.204;2023-08-31T07:47:44;99315.81;;;19.27;100.00
22283;BME280;11310;51.528;21.204;2023-08-31T08:02:22;99323.91;;;19.35;100.00
22283;BME280;11310;51.528;21.204;2023-08-31T08:05:08;99330.06;;;19.45;100.00
22283;BME280;11310;51.528;21.204;2023-08-31T08:07:37;99327.13;;;19.48;100.00
22283;BME280;11310;51.528;21.204;2023-08-31T08:10:09;99331.31;;;19.51;100.00
22283;BME280;11310;51.528;21.204;2023-08-31T08:12:40;99324.84;;;19.63;100.00
22283;BME280;11310;51.528;21.204;2023-08-31T08:15:11;99331.59;;;19.57;100.00
22283;BME280;11310;51.528;21.204;2023-08-31T08:17:42;99335.06;;;19.67;100.00
22283;BME280;11310;51.528;21.204;2023-08-31T08:20:12;99339.78;;;19.73;100.00
22283;BME280;11310;51.528;21.204;2023-08-31T08:22:42;99344.09;;;19.84;100.00
22283;BME280;11310;51.528;21.204;2023-08-31T08:25:12;99340.31;;;19.86;100.00
22283;BME280;11310;51.528;21.204;2023-08-31T08:27:42;99344.38;;;19.90;100.00
22283;BME280;11310;51.528;21.204;2023-08-31T08:30:11;99355.00;;;19.90;100.00
22283;BME280;11310;51.528;21.204;2023-08-31T08:32:42;99345.34;;;19.89;100.00
22283;BME280;11310;51.528;21.204;2023-08-31T08:35:12;99350.09;;;19.95;100.00
22283;BME280;11310;51.528;21.204;2023-08-31T08:37:42;99350.66;;;19.99;100.00
22283;BME280;11310;51.528;21.204;2023-08-31T08:40:11;99354.25;;;20.07;100.00
22283;BME280;11310;51.528;21.204;2023-08-31T08:42:42;99354.41;;;20.15;100.00
22283;BME280;11310;51.528;21.204;2023-08-31T08:45:14;99348.63;;;20.20;100.00
22283;BME280;11310;51.528;21.204;2023-08-31T08:47:48;99349.75;;;20.17;100.00
22283;BME280;11310;51.528;21.204;2023-08-31T08:50:19;99349.41;;;20.30;100.00
22283;BME280;11310;51.528;21.204;2023-08-31T08:52:51;99335.41;;;20.55;100.00
22283;BME280;11310;51.528;21.204;2023-08-31T08:55:20;99333.09;;;21.05;100.00
22283;BME280;11310;51.528;21.204;2023-08-31T08:57:50;99337.47;;;21.49;100.00
22283;BME280;11310;51.528;21.204;2023-08-31T09:00:20;99338.38;;;21.83;100.00
22283;BME280;11310;51.528;21.204;2023-08-31T09:02:52;99347.56;;;22.14;100.00
22283;BME280;11310;51.528;21.204;2023-08-31T09:05:23;99335.81;;;21.99;100.00
22283;BME280;11310;51.528;21.204;2023-08-31T09:08:03;99348.91;;;21.84;100.00
22283;BME280;11310;51.528;21.204;2023-08-31T09:10:34;99352.00;;;21.72;100.00
22283;BME280;11310;51.528;21.204;2023-08-31T09:13:08;99352.22;;;21.61;100.00
22283;BME280;11310;51.528;21.204;2023-08-31T09:15:44;99358.38;;;21.36;100.00
22283;BME280;11310;51.528;21.204;2023-08-31T09:18:16;99355.97;;;21.25;100.00
22283;BME280;11310;51.528;21.204;2023-08-31T09:20:52;99354.66;;;21.54;100.00
22283;BME280;11310;51.528;21.204;2023-08-31T09:23:21;99358.00;;;21.91;100.00
22283;BME280;11310;51.528;21.204;2023-08-31T09:25:52;99360.97;;;22.22;100.00
22283;BME280;11310;51.528;21.204;2023-08-31T09:28:23;99364.75;;;22.45;100.00
22283;BME280;11310;51.528;21.204;2023-08-31T09:31:05;99372.53;;;22.64;98.15
22283;BME280;11310;51.528;21.204;2023-08-31T09:33:37;99375.25;;;22.72;100.00
22283;BME280;11310;51.528;21.204;2023-08-31T09:36:08;99380.38;;;22.57;99.70
22283;BME280;11310;51.528;21.204;2023-08-31T09:38:41;99383.81;;;22.83;95.47
22283;BME280;11310;51.528;21.204;2023-08-31T09:41:11;99385.19;;;23.03;97.81
22283;BME280;11310;51.528;21.204;2023-08-31T09:43:41;99388.38;;;23.15;97.93
22283;BME280;11310;51.528;21.204;2023-08-31T09:46:11;99384.81;;;22.90;97.00
22283;BME280;11310;51.528;21.204;2023-08-31T09:48:43;99385.56;;;22.59;96.66
22283;BME280;11310;51.528;21.204;2023-08-31T09:51:14;99391.13;;;22.40;98.44
22283;BME280;11310;51.528;21.204;2023-08-31T09:53:48;99378.19;;;22.19;98.20
22283;BME280;11310;51.528;21.204;2023-08-31T09:56:20;99387.44;;;22.07;98.51
22283;BME280;11310;51.528;21.204;2023-08-31T09:58:52;99383.09;;;22.06;99.93
22283;BME280;11310;51.528;21.204;2023-08-31T10:01:21;99394.00;;;22.13;100.00
22283;BME280;11310;51.528;21.204;2023-08-31T10:03:59;99387.81;;;22.12;98.08
22283;BME280;11310;51.528;21.204;2023-08-31T10:06:29;99386.75;;;22.31;98.12
22283;BME280;11310;51.528;21.204;2023-08-31T10:09:00;99383.63;;;22.77;96.94
22283;BME280;11310;51.528;21.204;2023-08-31T10:11:31;99394.25;;;23.10;95.88
22283;BME280;11310;51.528;21.204;2023-08-31T10:14:02;99397.81;;;23.27;95.86
22283;BME280;11310;51.528;21.204;2023-08-31T10:16:32;99398.63;;;23.35;92.53
22283;BME280;11310;51.528;21.204;2023-08-31T10:19:04;99396.47;;;23.23;92.90
22283;BME280;11310;51.528;21.204;2023-08-31T10:21:33;99404.06;;;23.02;94.69
22283;BME280;11310;51.528;21.204;2023-08-31T10:24:03;99403.69;;;22.89;94.43
22283;BME280;11310;51.528;21.204;2023-08-31T10:26:34;99405.69;;;22.79;92.42
22283;BME280;11310;51.528;21.204;2023-08-31T10:29:04;99399.97;;;22.74;95.82
22283;BME280;11310;51.528;21.204;2023-08-31T10:31:34;99402.47;;;22.67;95.71
22283;BME280;11310;51.528;21.204;2023-08-31T10:34:07;99403.59;;;22.57;96.14
22283;BME280;11310;51.528;21.204;2023-08-31T10:36:39;99400.59;;;22.60;95.49
22283;BME280;11310;51.528;21.204;2023-08-31T10:39:12;99402.34;;;22.77;94.99
22283;BME280;11310;51.528;21.204;2023-08-31T10:41:52;99402.75;;;23.14;93.89
22283;BME280;11310;51.528;21.204;2023-08-31T10:44:23;99404.00;;;23.35;93.24
22283;BME280;11310;51.528;21.204;2023-08-31T10:46:53;99398.47;;;23.77;92.68
22283;BME280;11310;51.528;21.204;2023-08-31T10:49:24;99403.81;;;23.85;90.09
22283;BME280;11310;51.528;21.204;2023-08-31T10:51:55;99404.81;;;23.76;89.22
22283;BME280;11310;51.528;21.204;2023-08-31T10:54:26;99411.88;;;23.69;90.85
22283;BME280;11310;51.528;21.204;2023-08-31T10:57:04;99413.88;;;23.43;88.14
22283;BME280;11310;51.528;21.204;2023-08-31T10:59:45;99414.19;;;23.24;88.11
22283;BME280;11310;51.528;21.204;2023-08-31T11:02:34;99423.84;;;23.09;87.44
22283;BME280;11310;51.528;21.204;2023-08-31T11:05:09;99424.50;;;23.11;91.85
22283;BME280;11310;51.528;21.204;2023-08-31T11:07:40;99420.16;;;23.18;92.33
22283;BME280;11310;51.528;21.204;2023-08-31T11:10:15;99421.88;;;23.19;90.42
22283;BME280;11310;51.528;21.204;2023-08-31T11:12:45;99427.56;;;23.24;90.29
22283;BME280;11310;51.528;21.204;2023-08-31T11:15:17;99423.22;;;23.23;91.13
22283;BME280;11310;51.528;21.204;2023-08-31T11:17:47;99423.22;;;23.23;91.31
22283;BME280;11310;51.528;21.204;2023-08-31T11:20:20;99431.03;;;23.16;90.68
22283;BME280;11310;51.528;21.204;2023-08-31T11:22:50;99427.50;;;23.00;92.01
22283;BME280;11310;51.528;21.204;2023-08-31T11:25:22;99426.75;;;22.82;92.03
22283;BME280;11310;51.528;21.204;2023-08-31T11:27:54;99423.00;;;22.59;92.01
22283;BME280;11310;51.528;21.204;2023-08-31T11:30:24;99426.56;;;22.42;89.55
22283;BME280;11310;51.528;21.204;2023-08-31T11:32:54;99431.91;;;22.42;93.78
22283;BME280;11310;51.528;21.204;2023-08-31T11:35:32;99424.56;;;22.44;93.74
22283;BME280;11310;51.528;21.204;2023-08-31T11:38:04;99423.34;;;22.64;93.86
22283;BME280;11310;51.528;21.204;2023-08-31T11:40:35;99429.03;;;23.10;91.15
22283;BME280;11310;51.528;21.204;2023-08-31T11:43:05;99425.59;;;23.50;88.68
22283;BME280;11310;51.528;21.204;2023-08-31T11:45:35;99430.28;;;23.64;86.70
22283;BME280;11310;51.528;21.204;2023-08-31T11:48:06;99434.47;;;23.74;85.49
22283;BME280;11310;51.528;21.204;2023-08-31T11:50:40;99425.25;;;23.85;85.39
22283;BME280;11310;51.528;21.204;2023-08-31T11:53:13;99423.91;;;24.13;85.48
22283;BME280;11310;51.528;21.204;2023-08-31T11:55:56;99421.94;;;24.53;80.11
22283;BME280;11310;51.528;21.204;2023-08-31T11:58:31;99422.72;;;24.78;80.20
22283;BME280;11310;51.528;21.204;2023-08-31T12:01:03;99422.41;;;24.73;79.51
22283;BME280;11310;51.528;21.204;2023-08-31T12:03:42;99419.91;;;24.55;77.51
22283;BME280;11310;51.528;21.204;2023-08-31T12:06:19;99420.09;;;24.62;80.91
22283;BME280;11310;51.528;21.204;2023-08-31T12:08:49;99420.53;;;24.27;82.31
22283;BME280;11310;51.528;21.204;2023-08-31T12:11:21;99413.53;;;24.02;83.99
22283;BME280;11310;51.528;21.204;2023-08-31T12:13:51;99415.53;;;23.76;83.81
22283;BME280;11310;51.528;21.204;2023-08-31T12:16:22;99414.56;;;23.45;84.97
22283;BME280;11310;51.528;21.204;2023-08-31T12:18:52;99411.81;;;23.21;85.38
22283;BME280;11310;51.528;21.204;2023-08-31T12:21:24;99410.28;;;23.02;85.82
22283;BME280;11310;51.528;21.204;2023-08-31T12:23:54;99408.50;;;23.27;86.72
22283;BME280;11310;51.528;21.204;2023-08-31T12:26:23;99404.47;;;23.71;84.92
22283;BME280;11310;51.528;21.204;2023-08-31T12:29:00;99395.28;;;23.89;83.68
22283;BME280;11310;51.528;21.204;2023-08-31T12:31:36;99399.44;;;24.16;84.26
22283;BME280;11310;51.528;21.204;2023-08-31T12:34:11;99405.97;;;24.21;83.11
22283;BME280;11310;51.528;21.204;2023-08-31T12:36:47;99404.28;;;24.20;82.69
22283;BME280;11310;51.528;21.204;2023-08-31T12:39:16;99402.31;;;24.61;82.41
22283;BME280;11310;51.528;21.204;2023-08-31T12:41:50;99406.13;;;25.05;78.38
22283;BME280;11310;51.528;21.204;2023-08-31T12:44:20;99403.03;;;25.16;75.26
22283;BME280;11310;51.528;21.204;2023-08-31T12:46:49;99404.56;;;25.10;77.25
22283;BME280;11310;51.528;21.204;2023-08-31T12:49:22;99414.84;;;25.07;77.75
22283;BME280;11310;51.528;21.204;2023-08-31T12:51:55;99405.06;;;25.14;76.01
22283;BME280;11310;51.528;21.204;2023-08-31T12:54:28;99403.97;;;25.00;76.43
22283;BME280;11310;51.528;21.204;2023-08-31T12:57:35;99402.69;;;25.19;72.08
22283;BME280;11310;51.528;21.204;2023-08-31T13:00:10;99406.47;;;25.32;76.82
22283;BME280;11310;51.528;21.204;2023-08-31T13:02:41;99402.84;;;25.48;75.93
22283;BME280;11310;51.528;21.204;2023-08-31T13:05:17;99407.13;;;25.57;76.57
22283;BME280;11310;51.528;21.204;2023-08-31T13:07:53;99412.06;;;25.68;75.80
22283;BME280;11310;51.528;21.204;2023-08-31T13:10:27;99406.63;;;25.76;73.15
22283;BME280;11310;51.528;21.204;2023-08-31T13:12:57;99399.72;;;25.36;76.83
22283;BME280;11310;51.528;21.204;2023-08-31T13:15:31;99411.75;;;24.87;78.20
22283;BME280;11310;51.528;21.204;2023-08-31T13:18:08;99406.94;;;25.05;79.80